createdAt,value
2023-04-18T00:00:02.143Z,103014.84
2023-04-18T00:02:29.537Z,103007.34
2023-04-18T00:04:56.437Z,103012.03
2023-04-18T00:07:22.974Z,103012.22
2023-04-18T00:09:49.371Z,103015.72
2023-04-18T00:12:15.851Z,103010.47
2023-04-18T00:14:42.272Z,103014.94
2023-04-18T00:17:08.798Z,103014.72
2023-04-18T00:19:37.206Z,103007.66
2023-04-18T00:22:03.624Z,103015.53
2023-04-18T00:24:30.124Z,103007.09
2023-04-18T00:26:57.147Z,103008.91
2023-04-18T00:29:23.645Z,103007.50
2023-04-18T00:31:50.123Z,103013.56
2023-04-18T00:34:16.534Z,103013.56
2023-04-18T00:36:43.010Z,103014.00
2023-04-18T00:39:09.498Z,103011.75
2023-04-18T00:41:35.887Z,103008.53
2023-04-18T00:44:02.314Z,103017.81
2023-04-18T00:46:28.801Z,103011.13
2023-04-18T00:48:55.620Z,103012.34
2023-04-18T00:51:22.078Z,103010.72
2023-04-18T00:53:48.797Z,103008.91
2023-04-18T00:56:15.565Z,103008.31
2023-04-18T00:58:41.989Z,103001.84
2023-04-18T01:01:09.401Z,103000.41
2023-04-18T01:03:37.415Z,103007.50
2023-04-18T01:06:04.166Z,103007.69
2023-04-18T01:08:30.833Z,103013.75
2023-04-18T01:10:57.348Z,103008.09
2023-04-18T01:13:23.861Z,103008.88
2023-04-18T01:15:53.088Z,103004.88
2023-04-18T01:18:20.822Z,103004.28
2023-04-18T01:20:49.460Z,103002.84
2023-04-18T01:23:17.303Z,102999.81
2023-04-18T01:25:45.179Z,102995.38
2023-04-18T01:28:14.866Z,102988.28
2023-04-18T01:30:41.488Z,102988.28
2023-04-18T01:33:09.064Z,102982.44
2023-04-18T01:35:35.666Z,102982.25
2023-04-18T01:38:02.291Z,102977.78
2023-04-18T01:40:30.385Z,102982.66
2023-04-18T01:42:57.936Z,102979.84
2023-04-18T01:45:24.481Z,102977.41
2023-04-18T01:47:51.153Z,102974.19
2023-04-18T01:50:19.209Z,102980.03
2023-04-18T01:52:45.883Z,102981.44
2023-04-18T01:55:12.452Z,102972.16
2023-04-18T01:57:38.981Z,102978.03
2023-04-18T02:00:06.377Z,102974.38
2023-04-18T02:02:33.173Z,102981.25
2023-04-18T02:05:01.512Z,102983.66
2023-04-18T02:07:27.926Z,102977.38
2023-04-18T02:09:54.560Z,102984.25
2023-04-18T02:12:23.382Z,102986.09
2023-04-18T02:14:55.806Z,102974.16
2023-04-18T02:17:23.584Z,102978.41
2023-04-18T02:19:53.752Z,102980.00
2023-04-18T02:22:20.241Z,102980.44
2023-04-18T02:24:46.974Z,102978.00
2023-04-18T02:27:13.526Z,102976.19
2023-04-18T02:29:40.259Z,102983.25
2023-04-18T02:32:09.060Z,102976.38
2023-04-18T02:34:36.788Z,102979.41
2023-04-18T02:37:03.657Z,102975.97
2023-04-18T02:39:30.290Z,102973.94
2023-04-18T02:41:56.825Z,102975.38
2023-04-18T02:44:23.286Z,102974.78
2023-04-18T02:46:49.685Z,102980.22
2023-04-18T02:49:16.103Z,102985.84
2023-04-18T02:51:42.635Z,102981.19
2023-04-18T02:54:10.717Z,102980.97
2023-04-18T02:56:40.209Z,102991.44
2023-04-18T02:59:07.097Z,102989.44
2023-04-18T03:01:33.532Z,102990.44
2023-04-18T03:04:00.160Z,102987.22
2023-04-18T03:06:27.296Z,102981.75
2023-04-18T03:08:56.022Z,102983.34
2023-04-18T03:11:22.513Z,102987.38
2023-04-18T03:13:49.020Z,102992.00
2023-04-18T03:16:15.831Z,102993.00
2023-04-18T03:18:42.396Z,102986.78
2023-04-18T03:21:08.827Z,102988.97
2023-04-18T03:23:35.272Z,102987.78
2023-04-18T03:26:01.727Z,102980.91
2023-04-18T03:28:28.174Z,102984.97
2023-04-18T03:30:54.793Z,102985.56
2023-04-18T03:33:22.453Z,102983.94
2023-04-18T03:35:48.959Z,102993.63
2023-04-18T03:38:15.445Z,102983.50
2023-04-18T03:40:44.301Z,102985.72
2023-04-18T03:43:11.020Z,102989.94
2023-04-18T03:45:37.893Z,102991.97
2023-04-18T03:48:06.164Z,102994.97
2023-04-18T03:50:33.093Z,102992.13
2023-04-18T03:53:01.919Z,102986.50
2023-04-18T03:55:28.357Z,103003.00
2023-04-18T03:57:55.071Z,103000.75
2023-04-18T04:00:21.555Z,103002.94
2023-04-18T04:02:48.119Z,103008.38
2023-04-18T04:05:14.782Z,102998.91
2023-04-18T04:07:41.227Z,103006.16
2023-04-18T04:10:08.058Z,102997.06
2023-04-18T04:12:34.973Z,103007.53
2023-04-18T04:15:01.414Z,102999.06
2023-04-18T04:17:28.897Z,102999.28
2023-04-18T04:19:55.395Z,103007.75
2023-04-18T04:22:22.042Z,103002.16
2023-04-18T04:24:48.639Z,103009.63
2023-04-18T04:27:15.135Z,102994.50
2023-04-18T04:29:44.058Z,103000.97
2023-04-18T04:32:10.835Z,103003.19
2023-04-18T04:34:37.525Z,103004.44
2023-04-18T04:37:03.957Z,103000.19
2023-04-18T04:39:30.800Z,103009.88
2023-04-18T04:41:57.627Z,103010.69
2023-04-18T04:44:26.112Z,102998.16
2023-04-18T04:46:54.549Z,103008.44
2023-04-18T04:49:21.102Z,103017.75
2023-04-18T04:51:47.641Z,103016.91
2023-04-18T04:54:14.446Z,103018.72
2023-04-18T04:56:41.072Z,103015.91
2023-04-18T04:59:07.598Z,103017.75
2023-04-18T05:01:34.126Z,103009.47
2023-04-18T05:04:00.720Z,103012.69
2023-04-18T05:06:27.498Z,103010.25
2023-04-18T05:08:55.695Z,103010.25
2023-04-18T05:11:22.073Z,103026.22
2023-04-18T05:13:48.542Z,103023.59
2023-04-18T05:16:15.068Z,103022.78
2023-04-18T05:18:42.037Z,103028.03
2023-04-18T05:21:08.417Z,103024.59
2023-04-18T05:23:37.013Z,103031.88
2023-04-18T05:26:04.263Z,103031.09
2023-04-18T05:28:31.107Z,103035.09
2023-04-18T05:31:01.266Z,103027.22
2023-04-18T05:33:31.604Z,103039.38
2023-04-18T05:35:58.502Z,103024.88
2023-04-18T05:38:25.779Z,103039.41
2023-04-18T05:40:52.497Z,103041.19
2023-04-18T05:43:19.444Z,103042.81
2023-04-18T05:45:46.269Z,103038.34
2023-04-18T05:48:13.550Z,103042.41
2023-04-18T05:50:40.129Z,103044.66
2023-04-18T05:53:06.636Z,103039.41
2023-04-18T05:55:34.641Z,103054.53
2023-04-18T05:58:01.100Z,103043.84
2023-04-18T06:00:28.215Z,103042.09
2023-04-18T06:02:57.058Z,103049.56
2023-04-18T06:05:28.292Z,103044.72
2023-04-18T06:07:55.437Z,103044.09
2023-04-18T06:10:21.933Z,103047.09
2023-04-18T06:12:48.440Z,103044.28
2023-04-18T06:15:14.867Z,103056.25
2023-04-18T06:17:41.461Z,103055.41
2023-04-18T06:20:09.252Z,103053.66
2023-04-18T06:22:35.770Z,103051.66
2023-04-18T06:25:02.243Z,103055.25
2023-04-18T06:27:31.684Z,103050.84
2023-04-18T06:29:58.980Z,103051.69
2023-04-18T06:32:25.610Z,103055.31
2023-04-18T06:34:53.002Z,103062.81
2023-04-18T06:37:19.662Z,103065.44
2023-04-18T06:39:46.094Z,103067.84
2023-04-18T06:42:12.510Z,103068.53
2023-04-18T06:44:39.082Z,103058.22
2023-04-18T06:47:07.282Z,103062.25
2023-04-18T06:49:34.476Z,103061.44
2023-04-18T06:52:00.892Z,103067.09
2023-04-18T06:54:27.344Z,103062.66
2023-04-18T06:56:53.992Z,103067.69
2023-04-18T06:59:21.454Z,103057.97
2023-04-18T07:01:47.908Z,103071.50
2023-04-18T07:04:15.066Z,103072.13
2023-04-18T07:06:42.319Z,103068.69
2023-04-18T07:09:08.857Z,103063.03
2023-04-18T07:11:35.525Z,103071.13
2023-04-18T07:14:01.957Z,103074.97
2023-04-18T07:16:29.677Z,103072.50
2023-04-18T07:18:56.315Z,103074.72
2023-04-18T07:21:23.889Z,103069.25
2023-04-18T07:23:50.427Z,103069.06
2023-04-18T07:26:16.821Z,103068.25
2023-04-18T07:28:43.270Z,103074.31
2023-04-18T07:31:11.533Z,103071.06
2023-04-18T07:33:38.580Z,103071.66
2023-04-18T07:36:05.482Z,103067.97
2023-04-18T07:38:33.682Z,103048.19
2023-04-18T07:41:01.588Z,103069.78
2023-04-18T07:43:28.076Z,103068.50
2023-04-18T07:45:54.649Z,103070.19
2023-04-18T07:48:22.541Z,103075.78
2023-04-18T07:50:49.407Z,103067.22
2023-04-18T07:53:18.907Z,103070.44
2023-04-18T07:55:45.893Z,103067.97
2023-04-18T07:58:12.747Z,103061.97
2023-04-18T08:00:39.752Z,103061.69
2023-04-18T08:03:12.885Z,103055.59
2023-04-18T08:05:40.184Z,103048.09
2023-04-18T08:08:08.175Z,103048.00
2023-04-18T08:10:34.917Z,103046.56
2023-04-18T08:13:02.199Z,103046.88
2023-04-18T08:15:29.055Z,103044.81
2023-04-18T08:17:56.095Z,103042.22
2023-04-18T08:20:23.207Z,103047.69
2023-04-18T08:23:04.746Z,103050.50
2023-04-18T08:25:33.411Z,103064.75
2023-04-18T08:28:00.016Z,103071.84
2023-04-18T08:30:26.517Z,103067.91
2023-04-18T08:32:53.145Z,103070.69
2023-04-18T08:35:19.772Z,103065.63
2023-04-18T08:37:46.329Z,103070.59
2023-04-18T08:40:12.812Z,103067.28
2023-04-18T08:42:40.616Z,103073.47
2023-04-18T08:45:07.662Z,103074.63
2023-04-18T08:47:35.598Z,103067.06
2023-04-18T08:50:02.115Z,103079.53
2023-04-18T08:52:30.716Z,103069.34
2023-04-18T08:54:57.471Z,103089.78
2023-04-18T08:57:27.380Z,103082.28
2023-04-18T08:59:54.370Z,103082.56
2023-04-18T09:02:24.318Z,103074.38
2023-04-18T09:04:55.757Z,103074.69
2023-04-18T09:07:29.152Z,103072.88
2023-04-18T09:09:57.655Z,103071.03
2023-04-18T09:12:26.155Z,103075.59
2023-04-18T09:14:57.524Z,103061.44
2023-04-18T09:17:53.060Z,103061.22
2023-04-18T09:20:44.573Z,103076.00
2023-04-18T09:23:14.872Z,103072.84
2023-04-18T09:25:44.154Z,103081.28
2023-04-18T09:28:31.824Z,103068.34
2023-04-18T09:31:13.313Z,103074.84
2023-04-18T09:33:43.240Z,103071.03
2023-04-18T09:36:22.793Z,103070.31
2023-04-18T09:38:52.571Z,103077.53
2023-04-18T09:41:22.441Z,103076.69
2023-04-18T09:43:49.290Z,103074.25
2023-04-18T09:46:17.498Z,103074.47
2023-04-18T09:48:44.096Z,103069.53
2023-04-18T09:51:18.036Z,103057.09
2023-04-18T09:53:47.282Z,103064.97
2023-04-18T09:56:26.153Z,103061.09
2023-04-18T09:58:56.953Z,103065.53
2023-04-18T10:01:27.956Z,103057.44
2023-04-18T10:03:55.413Z,103064.38
2023-04-18T10:06:22.266Z,103062.25
2023-04-18T10:08:49.329Z,103056.00
2023-04-18T10:11:15.820Z,103043.28
2023-04-18T10:13:49.015Z,103044.56
2023-04-18T10:16:16.858Z,103035.28
2023-04-18T10:18:43.363Z,103035.84
2023-04-18T10:21:10.025Z,103037.78
2023-04-18T10:23:37.880Z,103030.66
2023-04-18T10:26:08.817Z,103030.53
2023-04-18T10:28:56.524Z,103025.19
2023-04-18T10:31:25.895Z,103027.66
2023-04-18T10:34:18.270Z,103016.75
2023-04-18T10:37:05.180Z,103025.25
2023-04-18T10:39:47.510Z,103025.78
2023-04-18T10:42:14.018Z,103024.19
2023-04-18T10:44:40.578Z,103031.94
2023-04-18T10:47:10.029Z,103038.72
2023-04-18T10:49:38.970Z,103037.22
2023-04-18T10:52:06.055Z,103020.78
2023-04-18T10:54:46.930Z,103040.69
2023-04-18T10:57:13.862Z,103035.50
2023-04-18T10:59:45.477Z,103023.66
2023-04-18T11:02:25.180Z,103015.63
2023-04-18T11:04:54.450Z,103010.06
2023-04-18T11:07:33.091Z,103011.41
2023-04-18T11:10:01.987Z,103010.50
2023-04-18T11:12:33.200Z,103002.56
2023-04-18T11:15:02.651Z,103007.13
2023-04-18T11:17:32.714Z,102996.19
2023-04-18T11:20:01.585Z,103004.16
2023-04-18T11:22:28.223Z,103006.72
2023-04-18T11:24:59.095Z,103001.53
2023-04-18T11:27:26.859Z,103006.44
2023-04-18T11:29:54.684Z,102994.63
2023-04-18T11:32:24.752Z,102999.78
2023-04-18T11:34:53.390Z,102983.59
2023-04-18T11:37:20.365Z,102982.66
2023-04-18T11:39:46.912Z,102978.59
2023-04-18T11:42:13.443Z,102994.88
2023-04-18T11:44:40.089Z,102988.56
2023-04-18T11:47:22.350Z,102991.47
2023-04-18T11:49:56.466Z,102991.66
2023-04-18T11:52:25.955Z,102989.81
2023-04-18T11:54:52.487Z,102987.41
2023-04-18T11:57:23.262Z,102987.44
2023-04-18T11:59:56.629Z,102988.25
2023-04-18T12:02:38.479Z,102982.72
2023-04-18T12:05:05.813Z,102983.19
2023-04-18T12:07:38.339Z,102987.94
2023-04-18T12:10:09.348Z,102990.56
2023-04-18T12:12:36.364Z,102984.91
2023-04-18T12:15:16.250Z,102992.09
2023-04-18T12:17:48.543Z,102998.03
2023-04-18T12:20:16.111Z,102975.84
2023-04-18T12:22:50.163Z,102987.69
2023-04-18T12:25:27.120Z,102983.19
2023-04-18T12:28:04.488Z,102979.38
2023-04-18T12:30:37.376Z,102991.88
2023-04-18T12:33:04.884Z,102974.16
2023-04-18T12:35:32.076Z,102974.56
2023-04-18T12:38:02.794Z,102973.53
2023-04-18T12:40:30.295Z,102964.09
2023-04-18T12:42:56.776Z,102963.72
2023-04-18T12:45:26.417Z,102973.09
2023-04-18T12:47:53.509Z,102966.06
2023-04-18T12:50:25.312Z,102965.28
2023-04-18T12:52:53.108Z,102976.25
2023-04-18T12:55:20.324Z,102961.31
2023-04-18T12:57:46.979Z,102958.97
2023-04-18T13:00:13.933Z,102965.09
2023-04-18T13:02:44.459Z,102952.75
2023-04-18T13:05:13.406Z,102961.25
2023-04-18T13:07:40.773Z,102969.44
2023-04-18T13:10:11.895Z,102959.38
2023-04-18T13:12:39.695Z,102949.59
2023-04-18T13:15:08.473Z,102961.44
2023-04-18T13:17:36.769Z,102965.94
2023-04-18T13:20:12.294Z,102956.72
2023-04-18T13:22:39.906Z,102954.00
2023-04-18T13:25:08.221Z,102954.03
2023-04-18T13:27:34.955Z,102957.78
2023-04-18T13:30:02.031Z,102953.25
2023-04-18T13:32:28.553Z,102952.50
2023-04-18T13:34:56.070Z,102945.59
2023-04-18T13:37:22.629Z,102953.16
2023-04-18T13:39:49.323Z,102952.44
2023-04-18T13:42:16.383Z,102952.84
2023-04-18T13:44:42.853Z,102958.47
2023-04-18T13:47:09.304Z,102960.75
2023-04-18T13:49:36.395Z,102952.97
2023-04-18T13:52:03.705Z,102948.31
2023-04-18T13:54:34.309Z,102942.06
2023-04-18T13:57:04.184Z,102947.56
2023-04-18T13:59:31.680Z,102945.84
2023-04-18T14:01:58.626Z,102953.41
2023-04-18T14:04:25.612Z,102937.16
2023-04-18T14:06:52.372Z,102937.13
2023-04-18T14:09:18.900Z,102934.59
2023-04-18T14:11:45.722Z,102933.22
2023-04-18T14:14:12.256Z,102934.19
2023-04-18T14:16:38.916Z,102928.84
2023-04-18T14:19:05.322Z,102931.81
2023-04-18T14:21:31.729Z,102921.53
2023-04-18T14:24:00.750Z,102914.13
2023-04-18T14:26:27.521Z,102906.72
2023-04-18T14:28:54.497Z,102916.03
2023-04-18T14:31:21.437Z,102914.72
2023-04-18T14:33:47.967Z,102931.41
2023-04-18T14:36:16.989Z,102917.28
2023-04-18T14:38:47.136Z,102913.84
2023-04-18T14:41:13.587Z,102914.63
2023-04-18T14:43:40.375Z,102900.56
2023-04-18T14:46:16.436Z,102908.56
2023-04-18T14:48:45.621Z,102883.78
2023-04-18T14:51:12.312Z,102896.59
2023-04-18T14:53:39.078Z,102893.38
2023-04-18T14:56:05.809Z,102888.59
2023-04-18T14:58:32.284Z,102901.66
2023-04-18T15:00:58.882Z,102893.69
2023-04-18T15:03:25.460Z,102884.06
2023-04-18T15:05:53.191Z,102881.94
